sensor_id;sensor_type;location;lat;lon;timestamp;temperature;humidity
12504;DHT22;6316;48.118;-1.690;2022-12-19T00:00:43;10.60;99.90
12504;DHT22;6316;48.118;-1.690;2022-12-19T00:03:09;10.60;99.90
12504;DHT22;6316;48.118;-1.690;2022-12-19T00:05:36;10.60;99.90
12504;DHT22;6316;48.118;-1.690;2022-12-19T00:08:02;10.60;99.90
12504;DHT22;6316;48.118;-1.690;2022-12-19T00:10:28;10.60;99.90
12504;DHT22;6316;48.118;-1.690;2022-12-19T00:12:53;10.60;99.90
12504;DHT22;6316;48.118;-1.690;2022-12-19T00:15:19;10.60;99.90
12504;DHT22;6316;48.118;-1.690;2022-12-19T00:17:45;10.60;99.90
12504;DHT22;6316;48.118;-1.690;2022-12-19T00:20:10;10.60;99.90
12504;DHT22;6316;48.118;-1.690;2022-12-19T00:22:36;10.60;99.90
12504;DHT22;6316;48.118;-1.690;2022-12-19T00:25:02;10.60;99.90
12504;DHT22;6316;48.118;-1.690;2022-12-19T00:27:27;10.60;99.90
12504;DHT22;6316;48.118;-1.690;2022-12-19T00:29:53;10.60;99.90
12504;DHT22;6316;48.118;-1.690;2022-12-19T00:32:18;10.60;99.90
12504;DHT22;6316;48.118;-1.690;2022-12-19T00:34:44;10.70;99.90
12504;DHT22;6316;48.118;-1.690;2022-12-19T00:37:10;10.70;99.90
12504;DHT22;6316;48.118;-1.690;2022-12-19T00:39:36;10.60;99.90
12504;DHT22;6316;48.118;-1.690;2022-12-19T00:42:01;10.70;99.90
12504;DHT22;6316;48.118;-1.690;2022-12-19T00:44:27;10.70;99.90
12504;DHT22;6316;48.118;-1.690;2022-12-19T00:46:53;10.70;99.90
12504;DHT22;6316;48.118;-1.690;2022-12-19T00:49:19;10.70;99.90
12504;DHT22;6316;48.118;-1.690;2022-12-19T00:51:45;10.70;99.90
12504;DHT22;6316;48.118;-1.690;2022-12-19T00:54:10;10.70;99.90
12504;DHT22;6316;48.118;-1.690;2022-12-19T00:56:36;10.70;99.90
12504;DHT22;6316;48.118;-1.690;2022-12-19T00:59:01;10.70;99.90
12504;DHT22;6316;48.118;-1.690;2022-12-19T01:01:29;10.70;99.90
12504;DHT22;6316;48.118;-1.690;2022-12-19T01:03:57;10.70;99.90
12504;DHT22;6316;48.118;-1.690;2022-12-19T01:06:22;10.70;99.90
12504;DHT22;6316;48.118;-1.690;2022-12-19T01:08:48;10.70;99.90
12504;DHT22;6316;48.118;-1.690;2022-12-19T01:11:14;10.70;99.90
12504;DHT22;6316;48.118;-1.690;2022-12-19T01:13:40;10.70;99.90
12504;DHT22;6316;48.118;-1.690;2022-12-19T01:16:11;10.70;99.90
12504;DHT22;6316;48.118;-1.690;2022-12-19T01:18:37;10.70;99.90
12504;DHT22;6316;48.118;-1.690;2022-12-19T01:21:07;10.70;99.90
12504;DHT22;6316;48.118;-1.690;2022-12-19T01:23:34;10.70;99.90
12504;DHT22;6316;48.118;-1.690;2022-12-19T01:26:00;10.70;99.90
12504;DHT22;6316;48.118;-1.690;2022-12-19T01:28:26;10.70;99.90
12504;DHT22;6316;48.118;-1.690;2022-12-19T01:30:52;10.70;99.90
12504;DHT22;6316;48.118;-1.690;2022-12-19T01:33:18;10.70;99.90
12504;DHT22;6316;48.118;-1.690;2022-12-19T01:35:46;10.70;99.90
12504;DHT22;6316;48.118;-1.690;2022-12-19T01:38:18;10.70;99.90
12504;DHT22;6316;48.118;-1.690;2022-12-19T01:40:52;10.70;99.90
12504;DHT22;6316;48.118;-1.690;2022-12-19T01:43:18;10.70;99.90
12504;DHT22;6316;48.118;-1.690;2022-12-19T01:45:45;10.70;99.90
12504;DHT22;6316;48.118;-1.690;2022-12-19T01:51:02;10.70;99.90
12504;DHT22;6316;48.118;-1.690;2022-12-19T01:53:33;10.70;99.90
12504;DHT22;6316;48.118;-1.690;2022-12-19T01:56:01;10.70;99.90
12504;DHT22;6316;48.118;-1.690;2022-12-19T01:58:29;10.70;99.90
12504;DHT22;6316;48.118;-1.690;2022-12-19T02:00:55;10.70;99.90
12504;DHT22;6316;48.118;-1.690;2022-12-19T02:03:28;10.70;99.90
12504;DHT22;6316;48.118;-1.690;2022-12-19T02:05:54;10.70;99.90
12504;DHT22;6316;48.118;-1.690;2022-12-19T02:08:21;10.80;99.90
12504;DHT22;6316;48.118;-1.690;2022-12-19T02:10:48;10.80;99.90
12504;DHT22;6316;48.118;-1.690;2022-12-19T02:13:14;10.80;99.90
12504;DHT22;6316;48.118;-1.690;2022-12-19T02:15:58;10.80;99.90
12504;DHT22;6316;48.118;-1.690;2022-12-19T02:27:02;10.70;99.90
12504;DHT22;6316;48.118;-1.690;2022-12-19T02:29:50;10.60;99.90
12504;DHT22;6316;48.118;-1.690;2022-12-19T02:32:26;10.60;99.90
12504;DHT22;6316;48.118;-1.690;2022-12-19T02:37:35;10.60;99.90
12504;DHT22;6316;48.118;-1.690;2022-12-19T02:40:16;10.60;99.90
12504;DHT22;6316;48.118;-1.690;2022-12-19T02:42:49;10.60;99.90
12504;DHT22;6316;48.118;-1.690;2022-12-19T02:45:17;10.60;99.90
12504;DHT22;6316;48.118;-1.690;2022-12-19T02:47:44;10.60;99.90
12504;DHT22;6316;48.118;-1.690;2022-12-19T02:50:10;10.60;99.90
12504;DHT22;6316;48.118;-1.690;2022-12-19T02:55:14;10.60;99.90
12504;DHT22;6316;48.118;-1.690;2022-12-19T03:01:09;10.60;99.90
12504;DHT22;6316;48.118;-1.690;2022-12-19T03:04:09;10.60;99.90
12504;DHT22;6316;48.118;-1.690;2022-12-19T03:06:48;10.60;99.90
12504;DHT22;6316;48.118;-1.690;2022-12-19T03:09:23;10.60;99.90
12504;DHT22;6316;48.118;-1.690;2022-12-19T03:12:39;10.60;99.90
12504;DHT22;6316;48.118;-1.690;2022-12-19T03:14:44;10.60;99.90
12504;DHT22;6316;48.118;-1.690;2022-12-19T03:17:11;10.60;99.90
12504;DHT22;6316;48.118;-1.690;2022-12-19T03:19:37;10.60;99.90
12504;DHT22;6316;48.118;-1.690;2022-12-19T03:22:04;10.60;99.90
12504;DHT22;6316;48.118;-1.690;2022-12-19T03:24:29;10.60;99.90
12504;DHT22;6316;48.118;-1.690;2022-12-19T03:26:56;10.60;99.90
12504;DHT22;6316;48.118;-1.690;2022-12-19T03:29:32;10.60;99.90
12504;DHT22;6316;48.118;-1.690;2022-12-19T03:32:01;10.60;99.90
12504;DHT22;6316;48.118;-1.690;2022-12-19T03:34:34;10.60;99.90
12504;DHT22;6316;48.118;-1.690;2022-12-19T03:37:02;10.60;99.90
12504;DHT22;6316;48.118;-1.690;2022-12-19T03:39:30;10.60;99.90
12504;DHT22;6316;48.118;-1.690;2022-12-19T03:41:58;10.60;99.90
12504;DHT22;6316;48.118;-1.690;2022-12-19T03:44:43;10.60;99.90
12504;DHT22;6316;48.118;-1.690;2022-12-19T03:47:17;10.70;99.90
12504;DHT22;6316;48.118;-1.690;2022-12-19T03:49:44;10.70;99.90
12504;DHT22;6316;48.118;-1.690;2022-12-19T03:52:35;10.70;99.90
12504;DHT22;6316;48.118;-1.690;2022-12-19T03:55:14;10.70;99.90
12504;DHT22;6316;48.118;-1.690;2022-12-19T03:58:11;10.70;99.90
12504;DHT22;6316;48.118;-1.690;2022-12-19T04:00:40;10.70;99.90
12504;DHT22;6316;48.118;-1.690;2022-12-19T04:03:09;10.70;99.90
12504;DHT22;6316;48.118;-1.690;2022-12-19T04:05:36;10.70;99.90
12504;DHT22;6316;48.118;-1.690;2022-12-19T04:08:05;10.70;99.90
12504;DHT22;6316;48.118;-1.690;2022-12-19T04:10:37;10.70;99.90
12504;DHT22;6316;48.118;-1.690;2022-12-19T04:13:11;10.70;99.90
12504;DHT22;6316;48.118;-1.690;2022-12-19T04:15:49;10.70;99.90
12504;DHT22;6316;48.118;-1.690;2022-12-19T04:18:18;10.70;99.90
12504;DHT22;6316;48.118;-1.690;2022-12-19T04:20:52;10.70;99.90
12504;DHT22;6316;48.118;-1.690;2022-12-19T04:23:30;10.70;99.90
12504;DHT22;6316;48.118;-1.690;2022-12-19T04:25:59;10.70;99.90
12504;DHT22;6316;48.118;-1.690;2022-12-19T04:28:39;10.70;99.90
12504;DHT22;6316;48.118;-1.690;2022-12-19T04:31:06;10.70;99.90
12504;DHT22;6316;48.118;-1.690;2022-12-19T04:33:32;10.70;99.90
12504;DHT22;6316;48.118;-1.690;2022-12-19T04:35:58;10.70;99.90
12504;DHT22;6316;48.118;-1.690;2022-12-19T04:38:25;10.70;99.90
12504;DHT22;6316;48.118;-1.690;2022-12-19T04:40:51;10.70;99.90
12504;DHT22;6316;48.118;-1.690;2022-12-19T04:43:17;10.70;99.90
12504;DHT22;6316;48.118;-1.690;2022-12-19T04:45:42;10.70;99.90
12504;DHT22;6316;48.118;-1.690;2022-12-19T04:48:08;10.70;99.90
12504;DHT22;6316;48.118;-1.690;2022-12-19T04:50:34;10.70;99.90
12504;DHT22;6316;48.118;-1.690;2022-12-19T04:53:00;10.70;99.90
12504;DHT22;6316;48.118;-1.690;2022-12-19T04:55:26;10.60;99.90
12504;DHT22;6316;48.118;-1.690;2022-12-19T04:57:51;10.60;99.90
12504;DHT22;6316;48.118;-1.690;2022-12-19T05:00:17;10.60;99.90
12504;DHT22;6316;48.118;-1.690;2022-12-19T05:02:43;10.60;99.90
12504;DHT22;6316;48.118;-1.690;2022-12-19T05:05:08;10.60;99.90
12504;DHT22;6316;48.118;-1.690;2022-12-19T05:07:34;10.60;99.90
12504;DHT22;6316;48.118;-1.690;2022-12-19T05:10:00;10.60;99.90
12504;DHT22;6316;48.118;-1.690;2022-12-19T05:12:27;10.60;99.90
12504;DHT22;6316;48.118;-1.690;2022-12-19T05:14:53;10.60;99.90
12504;DHT22;6316;48.118;-1.690;2022-12-19T05:17:19;10.60;99.90
12504;DHT22;6316;48.118;-1.690;2022-12-19T05:19:44;10.60;99.90
12504;DHT22;6316;48.118;-1.690;2022-12-19T05:22:10;10.60;99.90
12504;DHT22;6316;48.118;-1.690;2022-12-19T05:24:36;10.60;99.90
12504;DHT22;6316;48.118;-1.690;2022-12-19T05:27:01;10.60;99.90
12504;DHT22;6316;48.118;-1.690;2022-12-19T05:29:27;10.50;99.90
12504;DHT22;6316;48.118;-1.690;2022-12-19T05:31:52;10.50;99.90
12504;DHT22;6316;48.118;-1.690;2022-12-19T05:34:18;10.50;99.90
12504;DHT22;6316;48.118;-1.690;2022-12-19T05:36:43;10.50;99.90
12504;DHT22;6316;48.118;-1.690;2022-12-19T05:39:09;10.50;99.90
12504;DHT22;6316;48.118;-1.690;2022-12-19T05:41:35;10.50;99.90
12504;DHT22;6316;48.118;-1.690;2022-12-19T05:44:01;10.50;99.90
12504;DHT22;6316;48.118;-1.690;2022-12-19T05:46:27;10.50;99.90
12504;DHT22;6316;48.118;-1.690;2022-12-19T05:48:53;10.50;99.90
12504;DHT22;6316;48.118;-1.690;2022-12-19T05:51:18;10.50;99.90
12504;DHT22;6316;48.118;-1.690;2022-12-19T05:53:45;10.50;99.90
12504;DHT22;6316;48.118;-1.690;2022-12-19T05:56:13;10.50;99.90
12504;DHT22;6316;48.118;-1.690;2022-12-19T05:58:40;10.50;99.90
12504;DHT22;6316;48.118;-1.690;2022-12-19T06:01:08;10.50;99.90
12504;DHT22;6316;48.118;-1.690;2022-12-19T06:03:34;10.50;99.90
12504;DHT22;6316;48.118;-1.690;2022-12-19T06:06:06;10.50;99.90
12504;DHT22;6316;48.118;-1.690;2022-12-19T06:08:32;10.50;99.90
12504;DHT22;6316;48.118;-1.690;2022-12-19T06:11:03;10.50;99.90
12504;DHT22;6316;48.118;-1.690;2022-12-19T06:13:29;10.50;99.90
12504;DHT22;6316;48.118;-1.690;2022-12-19T06:16:00;10.50;99.90
12504;DHT22;6316;48.118;-1.690;2022-12-19T06:18:26;10.50;99.90
12504;DHT22;6316;48.118;-1.690;2022-12-19T06:21:00;10.50;99.90
12504;DHT22;6316;48.118;-1.690;2022-12-19T06:23:27;10.50;99.90
12504;DHT22;6316;48.118;-1.690;2022-12-19T06:25:58;10.50;99.90
12504;DHT22;6316;48.118;-1.690;2022-12-19T06:28:25;10.50;99.90
12504;DHT22;6316;48.118;-1.690;2022-12-19T06:30:51;10.50;99.90
12504;DHT22;6316;48.118;-1.690;2022-12-19T06:33:19;10.50;99.90
12504;DHT22;6316;48.118;-1.690;2022-12-19T06:35:45;10.50;99.90
12504;DHT22;6316;48.118;-1.690;2022-12-19T06:38:10;10.50;99.90
12504;DHT22;6316;48.118;-1.690;2022-12-19T06:40:43;10.50;99.90
12504;DHT22;6316;48.118;-1.690;2022-12-19T06:43:27;10.50;99.90
12504;DHT22;6316;48.118;-1.690;2022-12-19T06:45:52;10.60;99.90
12504;DHT22;6316;48.118;-1.690;2022-12-19T06:48:18;10.50;99.90
12504;DHT22;6316;48.118;-1.690;2022-12-19T06:50:44;10.60;99.90
12504;DHT22;6316;48.118;-1.690;2022-12-19T06:53:09;10.60;99.90
12504;DHT22;6316;48.118;-1.690;2022-12-19T06:55:38;10.60;99.90
12504;DHT22;6316;48.118;-1.690;2022-12-19T06:58:03;10.60;99.90
12504;DHT22;6316;48.118;-1.690;2022-12-19T07:00:29;10.60;99.90
12504;DHT22;6316;48.118;-1.690;2022-12-19T07:02:57;10.60;99.90
12504;DHT22;6316;48.118;-1.690;2022-12-19T07:05:24;10.60;99.90
12504;DHT22;6316;48.118;-1.690;2022-12-19T07:07:50;10.60;99.90
12504;DHT22;6316;48.118;-1.690;2022-12-19T07:10:16;10.60;99.90
12504;DHT22;6316;48.118;-1.690;2022-12-19T07:12:42;10.60;99.90
12504;DHT22;6316;48.118;-1.690;2022-12-19T07:15:08;10.60;99.90
12504;DHT22;6316;48.118;-1.690;2022-12-19T07:17:33;10.60;99.90
12504;DHT22;6316;48.118;-1.690;2022-12-19T07:19:59;10.70;99.90
12504;DHT22;6316;48.118;-1.690;2022-12-19T07:22:28;10.70;99.90
12504;DHT22;6316;48.118;-1.690;2022-12-19T07:24:56;10.70;99.90
12504;DHT22;6316;48.118;-1.690;2022-12-19T07:27:22;10.70;99.90
12504;DHT22;6316;48.118;-1.690;2022-12-19T07:29:48;10.70;99.90
12504;DHT22;6316;48.118;-1.690;2022-12-19T07:32:13;10.80;99.90
12504;DHT22;6316;48.118;-1.690;2022-12-19T07:34:39;10.80;99.90
12504;DHT22;6316;48.118;-1.690;2022-12-19T07:37:05;10.80;99.90
12504;DHT22;6316;48.118;-1.690;2022-12-19T07:39:32;10.80;99.90
12504;DHT22;6316;48.118;-1.690;2022-12-19T07:41:57;10.80;99.90
12504;DHT22;6316;48.118;-1.690;2022-12-19T07:44:23;10.80;99.90
12504;DHT22;6316;48.118;-1.690;2022-12-19T07:46:48;10.90;99.90
12504;DHT22;6316;48.118;-1.690;2022-12-19T07:49:14;10.90;99.90
12504;DHT22;6316;48.118;-1.690;2022-12-19T07:51:39;10.90;99.90
12504;DHT22;6316;48.118;-1.690;2022-12-19T07:54:05;10.90;99.90
12504;DHT22;6316;48.118;-1.690;2022-12-19T07:56:31;10.90;99.90
12504;DHT22;6316;48.118;-1.690;2022-12-19T07:58:56;10.90;99.90
12504;DHT22;6316;48.118;-1.690;2022-12-19T08:01:22;10.90;99.90
12504;DHT22;6316;48.118;-1.690;2022-12-19T08:03:48;10.90;99.90
12504;DHT22;6316;48.118;-1.690;2022-12-19T08:06:13;10.90;99.90
12504;DHT22;6316;48.118;-1.690;2022-12-19T08:08:39;10.90;99.90
12504;DHT22;6316;48.118;-1.690;2022-12-19T08:11:11;10.90;99.90
12504;DHT22;6316;48.118;-1.690;2022-12-19T08:13:37;10.90;99.90
12504;DHT22;6316;48.118;-1.690;2022-12-19T08:16:03;10.90;99.90
12504;DHT22;6316;48.118;-1.690;2022-12-19T08:18:29;10.90;99.90
12504;DHT22;6316;48.118;-1.690;2022-12-19T08:20:55;10.90;99.90
12504;DHT22;6316;48.118;-1.690;2022-12-19T08:23:21;10.90;99.90
12504;DHT22;6316;48.118;-1.690;2022-12-19T08:25:47;11.00;99.90
12504;DHT22;6316;48.118;-1.690;2022-12-19T08:28:13;11.00;99.90
12504;DHT22;6316;48.118;-1.690;2022-12-19T08:30:39;11.00;99.90
12504;DHT22;6316;48.118;-1.690;2022-12-19T08:33:05;11.00;99.90
12504;DHT22;6316;48.118;-1.690;2022-12-19T08:35:31;11.00;99.90
12504;DHT22;6316;48.118;-1.690;2022-12-19T08:37:57;11.00;99.90
12504;DHT22;6316;48.118;-1.690;2022-12-19T08:40:22;11.00;99.90
12504;DHT22;6316;48.118;-1.690;2022-12-19T08:42:49;11.00;99.90
12504;DHT22;6316;48.118;-1.690;2022-12-19T08:45:16;11.00;99.90
12504;DHT22;6316;48.118;-1.690;2022-12-19T08:47:43;11.00;99.90
12504;DHT22;6316;48.118;-1.690;2022-12-19T08:50:09;11.00;99.90
12504;DHT22;6316;48.118;-1.690;2022-12-19T08:52:35;11.00;99.90
12504;DHT22;6316;48.118;-1.690;2022-12-19T08:55:00;11.10;99.90
12504;DHT22;6316;48.118;-1.690;2022-12-19T08:57:26;11.00;99.90
12504;DHT22;6316;48.118;-1.690;2022-12-19T08:59:52;11.00;99.90
12504;DHT22;6316;48.118;-1.690;2022-12-19T09:02:17;11.00;99.90
12504;DHT22;6316;48.118;-1.690;2022-12-19T09:04:43;11.10;99.90
12504;DHT22;6316;48.118;-1.690;2022-12-19T09:07:08;11.00;99.90
12504;DHT22;6316;48.118;-1.690;2022-12-19T09:09:34;11.00;99.90
12504;DHT22;6316;48.118;-1.690;2022-12-19T09:12:00;11.00;99.90
12504;DHT22;6316;48.118;-1.690;2022-12-19T09:14:25;11.00;99.90
12504;DHT22;6316;48.118;-1.690;2022-12-19T09:16:51;11.10;99.90
12504;DHT22;6316;48.118;-1.690;2022-12-19T09:19:16;11.10;99.90
12504;DHT22;6316;48.118;-1.690;2022-12-19T09:21:42;11.10;99.90
12504;DHT22;6316;48.118;-1.690;2022-12-19T09:24:09;11.10;99.90
12504;DHT22;6316;48.118;-1.690;2022-12-19T09:26:35;11.10;99.90
12504;DHT22;6316;48.118;-1.690;2022-12-19T09:29:06;11.10;99.90
12504;DHT22;6316;48.118;-1.690;2022-12-19T09:31:33;11.10;99.90
12504;DHT22;6316;48.118;-1.690;2022-12-19T09:33:58;11.10;99.90
12504;DHT22;6316;48.118;-1.690;2022-12-19T09:36:24;11.10;99.90
12504;DHT22;6316;48.118;-1.690;2022-12-19T09:38:53;11.10;99.90
12504;DHT22;6316;48.118;-1.690;2022-12-19T09:41:47;11.20;99.90
12504;DHT22;6316;48.118;-1.690;2022-12-19T09:47:17;11.20;99.90
12504;DHT22;6316;48.118;-1.690;2022-12-19T09:49:46;11.20;99.90
12504;DHT22;6316;48.118;-1.690;2022-12-19T09:52:20;11.20;99.90
12504;DHT22;6316;48.118;-1.690;2022-12-19T09:54:52;11.20;99.90
12504;DHT22;6316;48.118;-1.690;2022-12-19T10:00:20;11.30;99.90
12504;DHT22;6316;48.118;-1.690;2022-12-19T10:03:53;11.30;99.90
12504;DHT22;6316;48.118;-1.690;2022-12-19T10:06:20;11.30;99.90
12504;DHT22;6316;48.118;-1.690;2022-12-19T10:08:48;11.30;99.90
12504;DHT22;6316;48.118;-1.690;2022-12-19T10:22:22;11.50;99.90
12504;DHT22;6316;48.118;-1.690;2022-12-19T10:27:36;11.60;99.90
12504;DHT22;6316;48.118;-1.690;2022-12-19T10:30:16;11.60;99.90
12504;DHT22;6316;48.118;-1.690;2022-12-19T10:35:18;11.70;99.90
12504;DHT22;6316;48.118;-1.690;2022-12-19T10:38:03;11.80;99.90
12504;DHT22;6316;48.118;-1.690;2022-12-19T10:40:38;11.80;99.90
12504;DHT22;6316;48.118;-1.690;2022-12-19T10:45:45;11.90;99.90
12504;DHT22;6316;48.118;-1.690;2022-12-19T10:48:17;11.90;99.90
12504;DHT22;6316;48.118;-1.690;2022-12-19T10:50:43;12.00;99.90
12504;DHT22;6316;48.118;-1.690;2022-12-19T10:53:10;12.00;99.90
12504;DHT22;6316;48.118;-1.690;2022-12-19T10:55:50;12.10;99.90
12504;DHT22;6316;48.118;-1.690;2022-12-19T11:01:13;12.20;99.90
12504;DHT22;6316;48.118;-1.690;2022-12-19T11:03:42;12.20;99.90
12504;DHT22;6316;48.118;-1.690;2022-12-19T11:09:24;12.20;99.90
12504;DHT22;6316;48.118;-1.690;2022-12-19T11:15:22;12.30;99.90
12504;DHT22;6316;48.118;-1.690;2022-12-19T11:17:34;12.30;99.90
12504;DHT22;6316;48.118;-1.690;2022-12-19T11:20:16;12.30;99.90
12504;DHT22;6316;48.118;-1.690;2022-12-19T11:22:52;12.30;99.90
12504;DHT22;6316;48.118;-1.690;2022-12-19T11:25:21;12.30;99.90
12504;DHT22;6316;48.118;-1.690;2022-12-19T11:27:47;12.40;99.90
12504;DHT22;6316;48.118;-1.690;2022-12-19T11:32:42;12.40;99.90
12504;DHT22;6316;48.118;-1.690;2022-12-19T11:37:49;12.60;99.90
12504;DHT22;6316;48.118;-1.690;2022-12-19T11:45:49;12.80;99.90
12504;DHT22;6316;48.118;-1.690;2022-12-19T11:48:36;12.90;99.90
12504;DHT22;6316;48.118;-1.690;2022-12-19T11:56:28;13.00;99.90
12504;DHT22;6316;48.118;-1.690;2022-12-19T11:58:58;13.00;99.90
12504;DHT22;6316;48.118;-1.690;2022-12-19T12:07:03;13.00;99.90
12504;DHT22;6316;48.118;-1.690;2022-12-19T12:09:44;13.10;99.90
12504;DHT22;6316;48.118;-1.690;2022-12-19T12:12:25;13.00;99.90
12504;DHT22;6316;48.118;-1.690;2022-12-19T12:26:34;13.10;99.90
12504;DHT22;6316;48.118;-1.690;2022-12-19T12:31:58;13.10;99.90
12504;DHT22;6316;48.118;-1.690;2022-12-19T12:42:52;13.30;99.90
12504;DHT22;6316;48.118;-1.690;2022-12-19T12:45:42;13.30;99.90
12504;DHT22;6316;48.118;-1.690;2022-12-19T12:48:33;13.30;99.90
12504;DHT22;6316;48.118;-1.690;2022-12-19T12:51:00;13.30;99.90
12504;DHT22;6316;48.118;-1.690;2022-12-19T12:53:31;13.30;99.90
12504;DHT22;6316;48.118;-1.690;2022-12-19T12:55:59;13.40;99.90
12504;DHT22;6316;48.118;-1.690;2022-12-19T13:01:31;13.40;99.90
12504;DHT22;6316;48.118;-1.690;2022-12-19T13:17:04;13.50;99.90
12504;DHT22;6316;48.118;-1.690;2022-12-19T13:19:38;13.60;99.90
12504;DHT22;6316;48.118;-1.690;2022-12-19T13:24:49;13.70;99.90
12504;DHT22;6316;48.118;-1.690;2022-12-19T13:40:14;14.10;99.90
12504;DHT22;6316;48.118;-1.690;2022-12-19T13:46:01;14.10;99.90
12504;DHT22;6316;48.118;-1.690;2022-12-19T13:48:39;14.20;99.90
12504;DHT22;6316;48.118;-1.690;2022-12-19T13:51:07;14.10;99.90
12504;DHT22;6316;48.118;-1.690;2022-12-19T13:53:34;14.10;99.90
12504;DHT22;6316;48.118;-1.690;2022-12-19T13:56:01;14.10;99.90
12504;DHT22;6316;48.118;-1.690;2022-12-19T14:03:55;14.10;99.90
12504;DHT22;6316;48.118;-1.690;2022-12-19T14:06:28;14.10;99.90
12504;DHT22;6316;48.118;-1.690;2022-12-19T14:09:02;14.10;99.90
12504;DHT22;6316;48.118;-1.690;2022-12-19T14:11:28;14.20;99.90
12504;DHT22;6316;48.118;-1.690;2022-12-19T14:13:59;14.20;99.90
12504;DHT22;6316;48.118;-1.690;2022-12-19T14:16:44;14.30;99.90
12504;DHT22;6316;48.118;-1.690;2022-12-19T14:19:25;14.30;99.90
12504;DHT22;6316;48.118;-1.690;2022-12-19T14:21:52;14.30;99.90
12504;DHT22;6316;48.118;-1.690;2022-12-19T14:24:20;14.30;99.90
12504;DHT22;6316;48.118;-1.690;2022-12-19T14:26:59;14.30;99.90
12504;DHT22;6316;48.118;-1.690;2022-12-19T14:29:39;14.30;99.90
12504;DHT22;6316;48.118;-1.690;2022-12-19T14:32:10;14.30;99.90
12504;DHT22;6316;48.118;-1.690;2022-12-19T14:34:36;14.30;99.90
12504;DHT22;6316;48.118;-1.690;2022-12-19T14:37:02;14.30;99.90
12504;DHT22;6316;48.118;-1.690;2022-12-19T14:39:33;14.30;99.90
12504;DHT22;6316;48.118;-1.690;2022-12-19T14:42:05;14.40;99.90
12504;DHT22;6316;48.118;-1.690;2022-12-19T14:44:54;14.40;99.90
12504;DHT22;6316;48.118;-1.690;2022-12-19T14:47:39;14.40;99.90
12504;DHT22;6316;48.118;-1.690;2022-12-19T14:53:16;14.40;99.90
12504;DHT22;6316;48.118;-1.690;2022-12-19T14:55:43;14.50;99.90
12504;DHT22;6316;48.118;-1.690;2022-12-19T14:58:38;14.40;99.90
12504;DHT22;6316;48.118;-1.690;2022-12-19T15:01:04;14.50;99.90
12504;DHT22;6316;48.118;-1.690;2022-12-19T15:03:34;14.40;99.90
12504;DHT22;6316;48.118;-1.690;2022-12-19T15:06:26;14.50;99.90
12504;DHT22;6316;48.118;-1.690;2022-12-19T15:08:59;14.50;99.90
12504;DHT22;6316;48.118;-1.690;2022-12-19T15:11:34;14.50;99.90
12504;DHT22;6316;48.118;-1.690;2022-12-19T15:14:27;14.40;99.90
12504;DHT22;6316;48.118;-1.690;2022-12-19T15:17:13;14.40;99.90
12504;DHT22;6316;48.118;-1.690;2022-12-19T15:19:40;14.40;99.90
12504;DHT22;6316;48.118;-1.690;2022-12-19T15:22:06;14.30;99.90
12504;DHT22;6316;48.118;-1.690;2022-12-19T15:24:31;14.30;99.90
12504;DHT22;6316;48.118;-1.690;2022-12-19T15:26:57;14.30;99.90
12504;DHT22;6316;48.118;-1.690;2022-12-19T15:29:22;14.30;99.90
12504;DHT22;6316;48.118;-1.690;2022-12-19T15:31:48;14.30;99.90
12504;DHT22;6316;48.118;-1.690;2022-12-19T15:34:21;14.20;99.90
12504;DHT22;6316;48.118;-1.690;2022-12-19T15:36:48;14.30;99.90
12504;DHT22;6316;48.118;-1.690;2022-12-19T15:39:14;14.30;99.90
12504;DHT22;6316;48.118;-1.690;2022-12-19T15:41:40;14.20;99.90
12504;DHT22;6316;48.118;-1.690;2022-12-19T15:44:09;14.20;99.90
12504;DHT22;6316;48.118;-1.690;2022-12-19T15:46:38;14.20;99.90
12504;DHT22;6316;48.118;-1.690;2022-12-19T15:49:04;14.20;99.90
12504;DHT22;6316;48.118;-1.690;2022-12-19T15:51:29;14.20;99.90
12504;DHT22;6316;48.118;-1.690;2022-12-19T15:53:55;14.20;99.90
12504;DHT22;6316;48.118;-1.690;2022-12-19T15:56:25;14.20;99.90
12504;DHT22;6316;48.118;-1.690;2022-12-19T15:58:52;14.20;99.90
12504;DHT22;6316;48.118;-1.690;2022-12-19T16:01:18;14.10;99.90
12504;DHT22;6316;48.118;-1.690;2022-12-19T16:03:44;14.10;99.90
12504;DHT22;6316;48.118;-1.690;2022-12-19T16:06:14;14.10;99.90
12504;DHT22;6316;48.118;-1.690;2022-12-19T16:08:40;14.10;99.90
12504;DHT22;6316;48.118;-1.690;2022-12-19T16:11:18;14.00;99.90
12504;DHT22;6316;48.118;-1.690;2022-12-19T16:13:48;14.00;99.90
12504;DHT22;6316;48.118;-1.690;2022-12-19T16:16:15;14.00;99.90
12504;DHT22;6316;48.118;-1.690;2022-12-19T16:18:40;14.00;99.90
12504;DHT22;6316;48.118;-1.690;2022-12-19T16:23:43;14.00;99.90
12504;DHT22;6316;48.118;-1.690;2022-12-19T16:26:27;14.00;99.90
12504;DHT22;6316;48.118;-1.690;2022-12-19T16:28:56;14.00;99.90
12504;DHT22;6316;48.118;-1.690;2022-12-19T16:31:24;14.00;99.90
12504;DHT22;6316;48.118;-1.690;2022-12-19T16:33:49;14.00;99.90
12504;DHT22;6316;48.118;-1.690;2022-12-19T16:36:15;14.00;99.90
12504;DHT22;6316;48.118;-1.690;2022-12-19T16:38:40;14.00;99.90
12504;DHT22;6316;48.118;-1.690;2022-12-19T16:41:21;14.00;99.90
12504;DHT22;6316;48.118;-1.690;2022-12-19T16:43:48;14.00;99.90
12504;DHT22;6316;48.118;-1.690;2022-12-19T16:46:20;14.00;99.90
12504;DHT22;6316;48.118;-1.690;2022-12-19T16:48:46;14.00;99.90
12504;DHT22;6316;48.118;-1.690;2022-12-19T16:51:20;14.00;99.90
12504;DHT22;6316;48.118;-1.690;2022-12-19T16:53:50;14.00;99.90
12504;DHT22;6316;48.118;-1.690;2022-12-19T16:58:54;14.00;99.90
12504;DHT22;6316;48.118;-1.690;2022-12-19T17:01:20;13.90;99.90
12504;DHT22;6316;48.118;-1.690;2022-12-19T17:03:46;13.90;99.90
12504;DHT22;6316;48.118;-1.690;2022-12-19T17:06:14;13.90;99.90
12504;DHT22;6316;48.118;-1.690;2022-12-19T17:08:41;13.90;99.90
12504;DHT22;6316;48.118;-1.690;2022-12-19T17:11:25;13.90;99.90
12504;DHT22;6316;48.118;-1.690;2022-12-19T17:14:18;13.90;99.90
12504;DHT22;6316;48.118;-1.690;2022-12-19T17:16:44;13.90;99.90
12504;DHT22;6316;48.118;-1.690;2022-12-19T17:19:25;13.80;99.90
12504;DHT22;6316;48.118;-1.690;2022-12-19T17:21:51;13.90;99.90
12504;DHT22;6316;48.118;-1.690;2022-12-19T17:24:18;13.90;99.90
12504;DHT22;6316;48.118;-1.690;2022-12-19T17:26:45;13.80;99.90
12504;DHT22;6316;48.118;-1.690;2022-12-19T17:29:11;13.80;99.90
12504;DHT22;6316;48.118;-1.690;2022-12-19T17:31:37;13.80;99.90
12504;DHT22;6316;48.118;-1.690;2022-12-19T17:34:28;13.90;99.90
12504;DHT22;6316;48.118;-1.690;2022-12-19T17:36:55;13.90;99.90
12504;DHT22;6316;48.118;-1.690;2022-12-19T17:39:23;13.90;99.90
12504;DHT22;6316;48.118;-1.690;2022-12-19T17:41:49;13.90;99.90
12504;DHT22;6316;48.118;-1.690;2022-12-19T17:44:15;14.00;99.90
12504;DHT22;6316;48.118;-1.690;2022-12-19T17:46:42;14.00;99.90
12504;DHT22;6316;48.118;-1.690;2022-12-19T17:49:22;14.00;99.90
12504;DHT22;6316;48.118;-1.690;2022-12-19T17:51:50;14.00;99.90
12504;DHT22;6316;48.118;-1.690;2022-12-19T17:54:20;14.00;99.90
12504;DHT22;6316;48.118;-1.690;2022-12-19T17:56:46;14.00;99.90
12504;DHT22;6316;48.118;-1.690;2022-12-19T17:59:11;14.00;99.90
12504;DHT22;6316;48.118;-1.690;2022-12-19T18:01:39;14.00;99.90
12504;DHT22;6316;48.118;-1.690;2022-12-19T18:04:16;13.90;99.90
12504;DHT22;6316;48.118;-1.690;2022-12-19T18:06:42;13.90;99.90
12504;DHT22;6316;48.118;-1.690;2022-12-19T18:11:42;13.80;99.90
12504;DHT22;6316;48.118;-1.690;2022-12-19T18:14:08;13.80;99.90